createdAt,value
2023-10-10T00:02:22.583Z,90.87
2023-10-10T00:04:55.886Z,90.95
2023-10-10T00:07:24.719Z,90.57
2023-10-10T00:09:51.999Z,91.82
2023-10-10T00:12:21.057Z,91.46
2023-10-10T00:14:52.022Z,90.83
2023-10-10T00:17:22.057Z,91.39
2023-10-10T00:19:59.741Z,91.97
2023-10-10T00:22:35.862Z,91.67
2023-10-10T00:25:06.169Z,90.99
2023-10-10T00:27:34.317Z,91.04
2023-10-10T00:30:01.622Z,90.30
2023-10-10T00:32:36.685Z,90.23
2023-10-10T00:35:07.207Z,89.44
2023-10-10T00:37:36.214Z,89.67
2023-10-10T00:40:09.486Z,90.44
2023-10-10T00:42:43.085Z,90.21
2023-10-10T00:45:11.504Z,90.94
2023-10-10T00:47:44.499Z,91.47
2023-10-10T00:50:20.955Z,91.94
2023-10-10T00:52:54.227Z,92.47
2023-10-10T00:55:26.681Z,92.87
2023-10-10T00:57:57.681Z,92.65
2023-10-10T01:00:26.495Z,92.98
2023-10-10T01:02:54.161Z,92.89
2023-10-10T01:05:25.630Z,94.34
2023-10-10T01:07:55.244Z,94.49
2023-10-10T01:10:22.518Z,94.08
2023-10-10T01:12:50.941Z,92.86
2023-10-10T01:15:36.051Z,92.56
2023-10-10T01:18:04.645Z,92.86
2023-10-10T01:20:46.964Z,91.72
2023-10-10T01:23:20.028Z,92.03
2023-10-10T01:25:48.601Z,91.85
2023-10-10T01:28:22.365Z,92.18
2023-10-10T01:30:54.538Z,91.97
2023-10-10T01:33:26.399Z,92.49
2023-10-10T01:36:04.289Z,93.46
2023-10-10T01:39:00.503Z,94.49
2023-10-10T01:41:40.113Z,95.27
2023-10-10T01:44:14.256Z,94.93
2023-10-10T01:46:42.421Z,96.97
2023-10-10T01:49:15.106Z,97.13
2023-10-10T01:51:44.440Z,97.02
2023-10-10T01:54:22.183Z,96.40
2023-10-10T01:56:50.029Z,98.24
2023-10-10T01:59:27.143Z,97.73
2023-10-10T02:01:55.906Z,97.91
2023-10-10T02:04:23.513Z,97.45
2023-10-10T02:06:58.017Z,96.51
2023-10-10T02:09:25.550Z,95.75
2023-10-10T02:11:56.042Z,96.73
2023-10-10T02:14:26.477Z,97.23
2023-10-10T02:16:55.716Z,96.99
2023-10-10T02:19:36.300Z,97.74
2023-10-10T02:22:33.838Z,97.64
2023-10-10T02:25:22.154Z,98.53
2023-10-10T02:28:08.018Z,98.12
2023-10-10T02:30:36.273Z,99.43
2023-10-10T02:33:31.665Z,100.00
2023-10-10T02:35:59.365Z,99.61
2023-10-10T02:38:33.432Z,100.00
2023-10-10T02:41:17.766Z,100.00
2023-10-10T02:43:47.661Z,100.00
2023-10-10T02:46:19.330Z,100.00
2023-10-10T02:48:46.647Z,100.00
2023-10-10T02:51:17.296Z,100.00
2023-10-10T02:53:48.005Z,100.00
2023-10-10T02:56:20.168Z,100.00
2023-10-10T02:58:51.082Z,100.00
2023-10-10T03:01:41.012Z,100.00
2023-10-10T03:04:09.920Z,100.00
2023-10-10T03:06:39.345Z,98.78
2023-10-10T03:09:17.288Z,98.53
2023-10-10T03:12:05.133Z,99.46
2023-10-10T03:14:36.859Z,100.00
2023-10-10T03:17:07.008Z,99.68
2023-10-10T03:19:39.903Z,98.74
2023-10-10T03:22:25.704Z,100.00
2023-10-10T03:25:08.789Z,100.00
2023-10-10T03:27:56.318Z,100.00
2023-10-10T03:30:45.775Z,100.00
2023-10-10T03:33:18.160Z,100.00
2023-10-10T03:36:01.230Z,99.63
2023-10-10T03:38:39.439Z,100.00
2023-10-10T03:41:25.113Z,100.00
2023-10-10T03:44:16.031Z,100.00
2023-10-10T03:47:01.704Z,100.00
2023-10-10T03:49:50.535Z,100.00
2023-10-10T03:52:36.825Z,100.00
2023-10-10T03:55:23.102Z,100.00
2023-10-10T03:58:08.845Z,100.00
2023-10-10T04:00:54.580Z,100.00
2023-10-10T04:03:40.867Z,100.00
2023-10-10T04:06:26.719Z,100.00
2023-10-10T04:09:12.772Z,100.00
2023-10-10T04:11:58.657Z,100.00
2023-10-10T04:14:44.411Z,100.00
2023-10-10T04:17:30.587Z,100.00
2023-10-10T04:20:16.798Z,100.00
2023-10-10T04:23:02.707Z,100.00
2023-10-10T04:25:48.478Z,100.00
2023-10-10T04:28:34.134Z,100.00
2023-10-10T04:31:25.155Z,100.00
2023-10-10T04:34:16.916Z,100.00
2023-10-10T04:37:05.502Z,100.00
2023-10-10T04:39:51.318Z,100.00
2023-10-10T04:42:37.080Z,100.00
2023-10-10T04:45:23.499Z,100.00
2023-10-10T04:48:12.471Z,100.00
2023-10-10T22:34:16.671Z,95.07
2023-10-10T22:36:54.947Z,95.82
2023-10-10T22:39:29.692Z,96.70
2023-10-10T22:41:56.847Z,96.63
2023-10-10T22:44:24.072Z,97.30
2023-10-10T22:46:51.316Z,97.90
2023-10-10T22:49:19.469Z,97.71
2023-10-10T22:51:46.809Z,97.40
2023-10-10T22:54:14.294Z,96.89
2023-10-10T22:56:42.598Z,96.05
2023-10-10T22:59:09.667Z,95.72
2023-10-10T23:01:36.775Z,95.23
2023-10-10T23:04:04.067Z,95.59
2023-10-10T23:06:31.273Z,96.25
2023-10-10T23:09:00.056Z,96.77
2023-10-10T23:11:27.761Z,97.06
2023-10-10T23:13:56.026Z,97.04
2023-10-10T23:16:23.726Z,97.22
2023-10-10T23:18:51.377Z,97.52
2023-10-10T23:21:20.586Z,97.26
2023-10-10T23:23:48.364Z,96.56
2023-10-10T23:26:20.466Z,96.83
2023-10-10T23:28:49.407Z,97.06
2023-10-10T23:31:17.215Z,97.59
2023-10-10T23:33:44.491Z,97.73
2023-10-10T23:36:12.698Z,98.26
2023-10-10T23:38:41.718Z,98.21
2023-10-10T23:41:08.949Z,97.97
2023-10-10T23:43:38.429Z,97.12
2023-10-10T23:46:07.606Z,97.78
2023-10-10T23:48:37.007Z,97.49
2023-10-10T23:51:08.228Z,97.53
2023-10-10T23:53:39.991Z,97.85
2023-10-10T23:56:07.201Z,98.41
2023-10-10T23:58:36.378Z,98.57
